createdAt,value
2023-04-20T00:01:16.390Z,4.47
2023-04-20T00:03:44.739Z,3.90
2023-04-20T00:06:14.081Z,4.93
2023-04-20T00:08:42.572Z,4.50
2023-04-20T00:11:10.822Z,4.10
2023-04-20T00:13:40.497Z,3.40
2023-04-20T00:16:09.161Z,3.23
2023-04-20T00:18:37.402Z,3.30
2023-04-20T00:21:06.515Z,3.50
2023-04-20T00:23:34.817Z,6.07
2023-04-20T00:26:03.106Z,7.10
2023-04-20T00:28:31.539Z,5.20
2023-04-20T00:31:01.160Z,3.80
2023-04-20T00:33:29.339Z,4.33
2023-04-20T00:35:57.575Z,4.80
2023-04-20T00:38:25.983Z,4.97
2023-04-20T00:40:54.386Z,9.40
2023-04-20T00:43:23.351Z,4.13
2023-04-20T00:45:53.600Z,5.00
2023-04-20T00:48:23.678Z,5.30
2023-04-20T00:50:52.236Z,2.77
2023-04-20T00:53:21.118Z,7.97
2023-04-20T00:55:52.144Z,3.90
2023-04-20T00:58:20.589Z,4.80
2023-04-20T01:00:48.814Z,3.30
2023-04-20T01:03:19.829Z,8.13
2023-04-20T01:05:51.601Z,3.60
2023-04-20T01:08:19.930Z,3.63
2023-04-20T01:10:48.148Z,3.03
2023-04-20T01:13:16.533Z,4.47
2023-04-20T01:15:44.844Z,7.10
2023-04-20T01:18:13.820Z,5.73
2023-04-20T01:20:42.660Z,3.10
2023-04-20T01:23:12.212Z,5.70
2023-04-20T01:25:41.613Z,2.73
2023-04-20T01:28:10.482Z,2.67
2023-04-20T01:30:39.396Z,3.13
2023-04-20T01:33:07.754Z,3.63
2023-04-20T01:35:36.351Z,4.00
2023-04-20T01:38:04.707Z,3.10
2023-04-20T01:40:34.435Z,5.17
2023-04-20T01:43:02.739Z,2.53
2023-04-20T01:45:31.000Z,2.77
2023-04-20T01:47:59.334Z,2.80
2023-04-20T01:50:27.671Z,2.50
2023-04-20T01:52:55.887Z,5.50
2023-04-20T01:55:24.150Z,3.10
2023-04-20T01:57:55.428Z,3.63
2023-04-20T02:00:25.073Z,3.60
2023-04-20T02:02:53.512Z,2.73
2023-04-20T02:05:24.467Z,2.10
2023-04-20T02:07:52.680Z,2.40
2023-04-20T02:10:21.030Z,3.00
2023-04-20T02:12:50.529Z,3.23
2023-04-20T02:15:20.093Z,6.40
2023-04-20T02:17:52.274Z,2.50
2023-04-20T02:20:21.144Z,3.37
2023-04-20T02:22:50.315Z,6.93
2023-04-20T02:25:18.564Z,2.90
2023-04-20T02:27:46.824Z,7.63
2023-04-20T02:30:15.520Z,4.00
2023-04-20T02:32:45.596Z,4.67
2023-04-20T02:35:16.383Z,2.60
2023-04-20T02:37:44.739Z,2.40
2023-04-20T02:40:14.293Z,2.10
2023-04-20T02:42:42.553Z,3.10
2023-04-20T02:45:13.452Z,3.90
2023-04-20T02:47:46.977Z,5.70
2023-04-20T02:50:16.532Z,18.70
2023-04-20T02:53:05.070Z,23.13
2023-04-20T02:55:36.126Z,3.07
2023-04-20T02:58:12.393Z,12.20
2023-04-20T03:01:01.401Z,14.57
2023-04-20T03:03:31.916Z,9.50
2023-04-20T03:06:01.303Z,4.83
2023-04-20T03:08:29.675Z,3.50
2023-04-20T03:11:02.562Z,3.07
2023-04-20T03:13:30.834Z,4.07
2023-04-20T03:16:02.529Z,3.40
2023-04-20T03:18:37.256Z,2.60
2023-04-20T03:21:05.982Z,4.60
2023-04-20T03:23:35.696Z,7.30
2023-04-20T03:26:05.312Z,3.40
2023-04-20T03:28:42.879Z,2.33
2023-04-20T03:31:14.233Z,3.07
2023-04-20T03:33:43.832Z,2.57
2023-04-20T03:36:12.363Z,4.47
2023-04-20T03:38:40.868Z,2.77
2023-04-20T03:41:09.178Z,2.57
2023-04-20T03:43:37.424Z,2.73
2023-04-20T03:46:06.041Z,5.20
2023-04-20T03:48:35.432Z,2.70
2023-04-20T03:51:06.135Z,4.17
2023-04-20T03:53:34.569Z,3.20
2023-04-20T03:56:03.058Z,3.03
2023-04-20T03:58:32.453Z,2.77
2023-04-20T04:01:15.890Z,2.63
2023-04-20T04:03:48.302Z,3.50
2023-04-20T04:06:18.192Z,3.87
2023-04-20T04:08:46.416Z,4.47
2023-04-20T04:11:14.695Z,2.93
2023-04-20T04:13:43.597Z,3.33
2023-04-20T04:16:11.793Z,2.73
2023-04-20T04:18:44.501Z,2.60
2023-04-20T04:21:13.112Z,4.77
2023-04-20T04:23:47.489Z,8.37
2023-04-20T04:26:27.984Z,2.60
2023-04-20T04:28:56.456Z,7.43
2023-04-20T04:31:25.179Z,1.90
2023-04-20T04:33:53.437Z,6.00
2023-04-20T04:36:32.410Z,4.33
2023-04-20T04:39:02.352Z,4.40
2023-04-20T04:41:31.086Z,2.97
2023-04-20T04:44:11.197Z,2.90
2023-04-20T04:46:41.696Z,4.60
2023-04-20T04:49:10.574Z,2.87
2023-04-20T04:51:38.842Z,4.10
2023-04-20T04:54:09.022Z,4.53
2023-04-20T04:56:37.283Z,3.60
2023-04-20T04:59:05.610Z,3.43
2023-04-20T05:01:33.923Z,3.20
2023-04-20T05:04:02.663Z,3.17
2023-04-20T05:06:31.427Z,3.67
2023-04-20T05:08:59.924Z,3.10
2023-04-20T05:11:29.557Z,4.80
2023-04-20T05:13:57.962Z,3.50
2023-04-20T05:16:26.476Z,3.90
2023-04-20T05:18:54.884Z,4.93
2023-04-20T05:21:23.106Z,7.20
2023-04-20T05:23:51.483Z,4.30
2023-04-20T05:26:19.709Z,5.50
2023-04-20T05:28:49.436Z,3.97
2023-04-20T05:31:18.038Z,4.13
2023-04-20T05:33:46.396Z,4.10
2023-04-20T05:36:15.028Z,2.63
2023-04-20T05:38:43.260Z,3.00
2023-04-20T05:41:11.495Z,3.20
2023-04-20T05:43:39.790Z,9.87
2023-04-20T05:46:09.504Z,6.90
2023-04-20T05:48:37.726Z,7.67
2023-04-20T05:51:06.590Z,3.80
2023-04-20T05:53:34.826Z,4.53
2023-04-20T05:56:03.712Z,4.30
2023-04-20T05:58:34.561Z,5.73
2023-04-20T06:01:04.192Z,6.83
2023-04-20T06:03:33.969Z,6.07
2023-04-20T06:06:02.408Z,4.07
2023-04-20T06:08:30.605Z,6.13
2023-04-20T06:10:59.163Z,5.57
2023-04-20T06:13:27.409Z,6.80
2023-04-20T06:15:55.809Z,3.63
2023-04-20T06:18:24.218Z,6.27
2023-04-20T06:20:53.844Z,4.10
2023-04-20T06:23:22.464Z,4.70
2023-04-20T06:25:50.730Z,5.57
2023-04-20T06:28:18.947Z,8.33
2023-04-20T06:30:47.265Z,3.87
2023-04-20T06:33:17.284Z,5.57
2023-04-20T06:35:45.654Z,4.13
2023-04-20T06:38:15.308Z,3.80
2023-04-20T06:40:43.608Z,6.47
2023-04-20T06:43:11.869Z,3.80
2023-04-20T06:45:40.232Z,3.73
2023-04-20T06:48:20.214Z,9.13
2023-04-20T06:50:57.317Z,3.60
2023-04-20T06:53:27.129Z,3.93
2023-04-20T06:55:55.851Z,3.90
2023-04-20T06:58:24.447Z,4.50
2023-04-20T07:00:52.708Z,4.40
2023-04-20T07:03:21.266Z,6.83
2023-04-20T07:05:49.581Z,4.70
2023-04-20T07:08:17.790Z,4.40
2023-04-20T07:10:47.334Z,4.20
2023-04-20T07:13:16.170Z,3.50
2023-04-20T07:15:46.051Z,5.10
2023-04-20T07:18:14.269Z,5.00
2023-04-20T07:20:42.586Z,3.67
2023-04-20T07:23:10.957Z,4.83
2023-04-20T07:25:39.243Z,3.90
2023-04-20T07:28:09.045Z,6.60
2023-04-20T07:30:37.320Z,4.00
2023-04-20T07:33:06.041Z,5.17
2023-04-20T07:35:34.304Z,4.60
2023-04-20T07:38:02.590Z,4.40
2023-04-20T07:40:31.074Z,3.83
2023-04-20T07:42:59.322Z,3.83
2023-04-20T07:45:29.235Z,3.30
2023-04-20T07:47:57.668Z,5.23
2023-04-20T07:50:26.122Z,5.33
2023-04-20T07:52:54.418Z,4.00
2023-04-20T07:55:22.818Z,4.30
2023-04-20T07:57:52.221Z,4.23
2023-04-20T08:00:21.516Z,4.27
2023-04-20T08:02:51.289Z,5.30
2023-04-20T08:05:19.941Z,8.57
2023-04-20T08:07:48.451Z,4.73
2023-04-20T08:10:16.917Z,6.00
2023-04-20T08:12:45.311Z,4.50
2023-04-20T08:15:14.531Z,6.30
2023-04-20T08:17:42.912Z,5.10
2023-04-20T08:20:12.778Z,4.30
2023-04-20T08:22:41.113Z,4.33
2023-04-20T08:25:10.016Z,5.83
2023-04-20T08:27:38.367Z,5.47
2023-04-20T08:30:08.779Z,5.03
2023-04-20T08:32:37.161Z,4.97
2023-04-20T08:35:05.774Z,4.77
2023-04-20T08:37:35.737Z,6.20
2023-04-20T08:40:05.706Z,6.03
2023-04-20T08:42:33.983Z,4.40
2023-04-20T08:45:02.273Z,5.10
2023-04-20T08:47:31.196Z,4.83
2023-04-20T08:50:01.150Z,4.80
2023-04-20T08:52:29.435Z,4.80
2023-04-20T08:54:58.975Z,5.07
2023-04-20T08:57:27.284Z,5.30
2023-04-20T08:59:56.517Z,4.77
2023-04-20T09:02:24.934Z,4.97
2023-04-20T09:05:02.867Z,4.57
2023-04-20T09:07:31.860Z,4.73
2023-04-20T09:10:02.037Z,4.33
2023-04-20T09:12:40.814Z,5.83
2023-04-20T09:15:10.510Z,5.30
2023-04-20T09:17:41.114Z,4.10
2023-04-20T09:20:11.444Z,4.50
2023-04-20T09:22:39.965Z,4.07
2023-04-20T09:25:20.173Z,5.70
2023-04-20T09:27:57.064Z,4.97
2023-04-20T09:30:25.711Z,6.60
2023-04-20T09:33:03.041Z,4.40
2023-04-20T09:35:31.332Z,4.57
2023-04-20T09:37:59.551Z,4.53
2023-04-20T09:40:29.728Z,3.83
2023-04-20T09:43:04.071Z,4.23
2023-04-20T09:45:32.969Z,4.40
2023-04-20T09:48:01.657Z,3.97
2023-04-20T09:50:41.914Z,5.00
2023-04-20T09:53:17.195Z,5.90
2023-04-20T09:55:49.472Z,4.67
2023-04-20T09:58:20.387Z,4.50
2023-04-20T10:00:49.119Z,6.77
2023-04-20T10:03:18.810Z,6.93
2023-04-20T10:05:47.369Z,6.43
2023-04-20T10:08:16.159Z,4.60
2023-04-20T10:10:47.896Z,3.60
2023-04-20T10:13:19.494Z,4.33
2023-04-20T10:15:48.273Z,6.23
2023-04-20T10:18:21.091Z,4.70
2023-04-20T10:20:49.718Z,4.20
2023-04-20T10:23:19.949Z,3.93
2023-04-20T10:26:00.873Z,5.30
2023-04-20T10:28:40.778Z,5.47
2023-04-20T10:31:13.077Z,4.43
2023-04-20T10:33:51.246Z,4.00
2023-04-20T10:36:28.482Z,4.07
2023-04-20T10:38:57.424Z,4.10
2023-04-20T10:41:27.180Z,3.50
2023-04-20T10:43:55.407Z,7.63
2023-04-20T10:46:25.108Z,2.97
2023-04-20T10:48:59.071Z,5.00
2023-04-20T10:51:27.393Z,4.27
2023-04-20T10:54:05.204Z,3.90
2023-04-20T10:56:41.975Z,3.67
2023-04-20T10:59:11.600Z,3.50
2023-04-20T11:01:40.985Z,2.80
2023-04-20T11:04:10.469Z,2.90
2023-04-20T11:06:40.657Z,2.37
2023-04-20T11:09:20.015Z,2.10
2023-04-20T11:11:59.778Z,2.27
2023-04-20T11:14:28.060Z,2.10
2023-04-20T11:16:56.353Z,1.87
2023-04-20T11:19:26.903Z,2.00
2023-04-20T11:21:55.729Z,2.40
2023-04-20T11:24:27.585Z,3.07
2023-04-20T11:26:58.183Z,3.23
2023-04-20T11:29:34.019Z,2.60
2023-04-20T11:32:04.069Z,2.53
2023-04-20T11:34:32.751Z,2.50
2023-04-20T11:37:05.700Z,2.30
2023-04-20T11:39:34.603Z,2.20
2023-04-20T11:42:04.834Z,2.43
2023-04-20T11:44:34.068Z,2.20
2023-04-20T11:47:02.449Z,2.03
2023-04-20T11:49:30.912Z,1.90
2023-04-20T11:51:59.222Z,1.73
2023-04-20T11:54:28.492Z,1.77
2023-04-20T11:56:57.123Z,1.60
2023-04-20T11:59:26.964Z,1.63
2023-04-20T12:01:55.275Z,2.00
2023-04-20T12:04:24.091Z,2.00
2023-04-20T12:06:52.553Z,1.90
2023-04-20T12:09:21.089Z,2.10
2023-04-20T12:11:49.460Z,1.93
2023-04-20T12:14:17.779Z,2.50
2023-04-20T12:16:47.887Z,2.00
2023-04-20T12:19:16.491Z,2.40
2023-04-20T12:21:46.734Z,2.03
2023-04-20T12:24:15.087Z,1.50
2023-04-20T12:26:43.453Z,2.70
2023-04-20T12:29:11.711Z,1.30
2023-04-20T12:31:40.066Z,1.60
2023-04-20T12:34:09.766Z,1.87
2023-04-20T12:36:38.073Z,1.70
2023-04-20T12:39:06.491Z,1.53
2023-04-20T12:41:34.741Z,1.37
2023-04-20T12:44:06.035Z,1.80
2023-04-20T12:46:35.472Z,2.00
2023-04-20T12:49:03.770Z,1.83
2023-04-20T12:51:33.404Z,1.60
2023-04-20T12:54:01.707Z,2.40
2023-04-20T12:56:29.937Z,2.30
2023-04-20T12:58:58.224Z,1.70
2023-04-20T13:01:26.667Z,1.77
2023-04-20T13:03:55.253Z,1.87
2023-04-20T13:06:23.959Z,1.80
2023-04-20T13:08:53.594Z,1.60
2023-04-20T13:11:22.059Z,2.20
2023-04-20T13:13:50.354Z,2.10
2023-04-20T13:16:18.760Z,2.30
2023-04-20T13:18:47.092Z,1.60
2023-04-20T13:21:15.445Z,2.00
2023-04-20T13:23:43.724Z,3.73
2023-04-20T13:26:13.310Z,2.13
2023-04-20T13:28:41.551Z,1.80
2023-04-20T13:31:10.048Z,1.67
2023-04-20T13:33:38.254Z,1.60
2023-04-20T13:36:06.945Z,2.10
2023-04-20T13:38:35.452Z,2.60
2023-04-20T13:41:03.776Z,2.73
2023-04-20T13:43:33.559Z,3.00
2023-04-20T13:46:01.966Z,2.93
2023-04-20T13:48:30.344Z,6.33
2023-04-20T13:50:58.649Z,2.60
2023-04-20T13:53:27.473Z,4.83
2023-04-20T13:55:55.808Z,2.40
2023-04-20T13:58:24.075Z,1.90
2023-04-20T14:00:53.740Z,2.30
2023-04-20T14:03:22.268Z,2.43
2023-04-20T14:05:51.674Z,2.37
2023-04-20T14:08:20.846Z,2.00
2023-04-20T14:10:49.084Z,3.37
2023-04-20T14:13:17.366Z,3.10
2023-04-20T14:15:45.780Z,2.57
2023-04-20T14:18:15.499Z,2.20
2023-04-20T14:20:43.783Z,2.60
2023-04-20T14:23:12.164Z,2.70
2023-04-20T14:25:40.417Z,2.77
2023-04-20T14:28:08.671Z,3.10
2023-04-20T14:30:36.935Z,2.70
2023-04-20T14:33:06.620Z,2.17
2023-04-20T14:35:36.397Z,3.40
2023-04-20T14:38:04.630Z,3.77
2023-04-20T14:40:33.114Z,3.70
2023-04-20T14:43:01.364Z,3.17
2023-04-20T14:45:30.255Z,3.73
2023-04-20T14:47:58.895Z,3.17
2023-04-20T14:50:28.459Z,2.97
2023-04-20T14:52:58.139Z,3.00
2023-04-20T14:55:26.744Z,2.50
2023-04-20T14:57:56.744Z,2.67
2023-04-20T15:00:25.509Z,2.50
2023-04-20T15:02:56.243Z,2.30
2023-04-20T15:05:25.309Z,2.67
2023-04-20T15:07:53.709Z,4.67
2023-04-20T15:10:23.301Z,2.17
2023-04-20T15:12:51.559Z,2.60
2023-04-20T15:15:19.918Z,2.83
2023-04-20T15:17:48.217Z,3.20
2023-04-20T15:20:16.710Z,2.57
2023-04-20T15:22:44.952Z,2.57
2023-04-20T15:25:13.316Z,2.47
2023-04-20T15:27:43.058Z,3.00
2023-04-20T15:30:12.117Z,3.10
2023-04-20T15:32:41.557Z,3.37
2023-04-20T15:35:10.084Z,2.87
2023-04-20T15:37:38.422Z,6.07
2023-04-20T15:40:08.592Z,5.30
2023-04-20T15:42:36.874Z,3.67
2023-04-20T15:45:07.744Z,4.23
2023-04-20T15:47:36.104Z,7.13
2023-04-20T15:50:04.498Z,5.20
2023-04-20T15:52:33.615Z,3.83
2023-04-20T15:55:01.872Z,4.27
2023-04-20T15:57:30.749Z,5.23
2023-04-20T15:59:59.046Z,4.53
2023-04-20T16:02:28.715Z,4.20
2023-04-20T16:04:57.164Z,4.47
2023-04-20T16:07:25.516Z,5.30
2023-04-20T16:09:53.833Z,4.43
2023-04-20T16:12:22.035Z,5.70
2023-04-20T16:14:52.446Z,5.20
2023-04-20T16:17:22.227Z,4.77
2023-04-20T16:19:51.840Z,4.50
2023-04-20T16:22:20.649Z,4.93
2023-04-20T16:24:48.905Z,5.00
2023-04-20T16:27:18.900Z,4.23
2023-04-20T16:29:47.150Z,4.13
2023-04-20T16:32:15.412Z,4.10
2023-04-20T16:34:43.729Z,6.93
2023-04-20T16:37:13.361Z,5.17
2023-04-20T16:39:41.796Z,5.87
2023-04-20T16:42:09.951Z,4.20
2023-04-20T16:44:40.262Z,4.27
2023-04-20T16:47:09.940Z,4.30
2023-04-20T16:49:38.220Z,3.53
2023-04-20T16:52:06.544Z,2.93
2023-04-20T16:54:36.224Z,3.17
2023-04-20T16:57:04.753Z,3.83
2023-04-20T16:59:33.033Z,3.80
2023-04-20T17:02:01.505Z,3.37
2023-04-20T17:04:29.914Z,3.87
2023-04-20T17:06:59.300Z,4.47
2023-04-20T17:09:27.760Z,5.73
2023-04-20T17:11:59.332Z,3.73
2023-04-20T17:14:27.943Z,3.60
2023-04-20T17:16:57.285Z,3.60
2023-04-20T17:19:25.626Z,3.53
2023-04-20T17:21:54.250Z,3.03
2023-04-20T17:24:22.426Z,2.90
2023-04-20T17:26:51.030Z,3.50
2023-04-20T17:29:20.719Z,3.53
2023-04-20T17:31:49.014Z,3.20
2023-04-20T17:34:18.910Z,2.60
2023-04-20T17:36:47.283Z,5.47
2023-04-20T17:39:15.865Z,2.77
2023-04-20T17:41:44.866Z,2.70
2023-04-20T17:44:13.073Z,2.80
2023-04-20T17:46:42.790Z,4.07
2023-04-20T17:49:11.022Z,3.00
2023-04-20T17:51:39.398Z,3.30
2023-04-20T17:54:07.800Z,2.90
2023-04-20T17:56:36.169Z,3.33
2023-04-20T17:59:05.481Z,3.30
2023-04-20T18:01:34.738Z,4.40
2023-04-20T18:04:05.375Z,3.40
2023-04-20T18:06:33.883Z,5.97
2023-04-20T18:09:04.891Z,3.50
2023-04-20T18:11:33.212Z,3.30
2023-04-20T18:14:01.500Z,2.63
2023-04-20T18:16:29.789Z,2.90
2023-04-20T18:18:58.065Z,2.80
2023-04-20T18:21:29.523Z,3.10
2023-04-20T18:23:57.867Z,3.20
2023-04-20T18:26:26.068Z,3.67
2023-04-20T18:28:54.404Z,3.30
2023-04-20T18:31:22.775Z,4.03
2023-04-20T18:33:51.050Z,3.90
2023-04-20T18:36:19.455Z,3.27
2023-04-20T18:38:50.513Z,2.27
2023-04-20T18:41:19.316Z,2.73
2023-04-20T18:43:49.688Z,2.90
2023-04-20T18:46:18.105Z,3.20
2023-04-20T18:48:46.405Z,2.40
2023-04-20T18:51:14.709Z,2.70
2023-04-20T18:53:42.981Z,3.27
2023-04-20T18:56:12.990Z,3.40
2023-04-20T18:58:41.648Z,3.00
2023-04-20T19:01:09.988Z,2.90
2023-04-20T19:03:38.396Z,3.50
2023-04-20T19:06:07.121Z,2.90
2023-04-20T19:08:35.557Z,2.07
2023-04-20T19:11:03.899Z,2.70
2023-04-20T19:13:33.635Z,2.67
2023-04-20T19:16:02.014Z,2.77
2023-04-20T19:18:30.489Z,2.70
2023-04-20T19:20:58.813Z,2.80
2023-04-20T19:23:27.219Z,3.00
2023-04-20T19:25:55.617Z,3.10
2023-04-20T19:28:24.321Z,3.20
2023-04-20T19:30:54.323Z,3.10
2023-04-20T19:33:22.634Z,3.43
2023-04-20T19:35:51.620Z,4.93
2023-04-20T19:38:20.308Z,3.10
2023-04-20T19:40:49.437Z,3.23
2023-04-20T19:43:18.106Z,3.30
2023-04-20T19:45:46.600Z,2.93
2023-04-20T19:48:16.472Z,3.43
2023-04-20T19:50:44.766Z,3.13
2023-04-20T19:53:13.070Z,3.20
2023-04-20T19:55:41.256Z,3.27
2023-04-20T19:58:10.807Z,4.70
2023-04-20T20:00:39.521Z,4.03
2023-04-20T20:03:08.465Z,3.73
2023-04-20T20:05:38.394Z,4.10
2023-04-20T20:08:06.760Z,5.03
2023-04-20T20:10:35.634Z,5.50
2023-04-20T20:13:04.099Z,4.63
2023-04-20T20:15:33.298Z,4.80
2023-04-20T20:18:03.165Z,5.03
2023-04-20T20:20:32.435Z,4.93
2023-04-20T20:23:02.832Z,4.70
2023-04-20T20:25:31.979Z,6.10
2023-04-20T20:28:02.000Z,6.97
2023-04-20T20:30:30.745Z,4.80
2023-04-20T20:32:59.823Z,5.57
2023-04-20T20:35:31.746Z,6.17
2023-04-20T20:38:01.431Z,4.80
2023-04-20T20:40:29.738Z,6.80
2023-04-20T20:42:58.530Z,6.13
2023-04-20T20:45:27.845Z,10.33
2023-04-20T20:47:56.425Z,6.50
2023-04-20T20:50:26.396Z,6.83
2023-04-20T20:52:54.735Z,5.90
2023-04-20T20:55:24.760Z,6.90
2023-04-20T20:57:53.179Z,7.13
2023-04-20T21:00:21.340Z,6.80
2023-04-20T21:02:49.933Z,7.17
2023-04-20T21:05:18.797Z,7.10
2023-04-20T21:07:47.058Z,6.90
2023-04-20T21:10:15.488Z,7.47
2023-04-20T21:12:45.270Z,6.70
2023-04-20T21:15:13.697Z,7.93
2023-04-20T21:17:42.000Z,7.13
2023-04-20T21:20:11.614Z,7.33
2023-04-20T21:22:40.145Z,9.17
2023-04-20T21:25:09.190Z,7.90
2023-04-20T21:27:37.518Z,8.10
2023-04-20T21:30:08.313Z,7.77
2023-04-20T21:32:36.698Z,8.47
2023-04-20T21:35:06.157Z,8.00
2023-04-20T21:37:34.504Z,8.93
2023-04-20T21:40:03.706Z,8.37
2023-04-20T21:42:31.991Z,9.13
2023-04-20T21:45:00.173Z,8.20
2023-04-20T21:47:29.930Z,9.53
2023-04-20T21:49:58.268Z,8.87
2023-04-20T21:52:26.640Z,9.10
2023-04-20T21:54:55.085Z,9.70
2023-04-20T21:57:23.356Z,10.47
2023-04-20T21:59:51.700Z,10.43
2023-04-20T22:02:20.253Z,10.37
2023-04-20T22:04:50.045Z,10.00
2023-04-20T22:07:18.721Z,9.57
2023-04-20T22:09:47.031Z,9.83
2023-04-20T22:12:16.842Z,9.60
2023-04-20T22:14:46.277Z,10.00
2023-04-20T22:17:15.008Z,10.27
2023-04-20T22:19:43.390Z,11.30
2023-04-20T22:22:12.946Z,10.70
2023-04-20T22:24:41.177Z,11.20
2023-04-20T22:27:09.523Z,11.17
2023-04-20T22:29:37.764Z,10.90
2023-04-20T22:32:06.377Z,10.93
2023-04-20T22:34:34.676Z,11.30
2023-04-20T22:37:03.000Z,9.87
2023-04-20T22:39:32.560Z,11.20
2023-04-20T22:42:02.018Z,10.60
2023-04-20T22:44:30.255Z,10.70
2023-04-20T22:46:58.572Z,13.30
2023-04-20T22:49:26.896Z,14.40
2023-04-20T22:51:57.013Z,13.27
2023-04-20T22:54:25.439Z,14.77
2023-04-20T22:56:55.226Z,13.20
2023-04-20T22:59:23.526Z,14.53
2023-04-20T23:01:51.870Z,13.40
2023-04-20T23:04:20.185Z,15.30
2023-04-20T23:06:48.548Z,13.17
2023-04-20T23:09:20.600Z,14.70
2023-04-20T23:11:49.123Z,14.30
2023-04-20T23:14:18.708Z,14.90
2023-04-20T23:16:46.960Z,13.73
2023-04-20T23:19:15.207Z,14.37
2023-04-20T23:21:43.464Z,15.63
2023-04-20T23:24:11.778Z,16.10
2023-04-20T23:26:39.949Z,14.43
2023-04-20T23:29:08.162Z,16.53
2023-04-20T23:31:37.796Z,16.83
2023-04-20T23:34:06.140Z,16.10
2023-04-20T23:36:34.377Z,16.07
2023-04-20T23:39:02.731Z,17.27
2023-04-20T23:41:31.048Z,16.70
2023-04-20T23:43:59.418Z,16.80
2023-04-20T23:46:27.844Z,15.17
2023-04-20T23:48:57.477Z,15.50
2023-04-20T23:51:26.065Z,15.50
2023-04-20T23:53:54.305Z,15.90
2023-04-20T23:56:22.533Z,15.03
2023-04-20T23:58:50.999Z,16.63
